Terminal Aerodrome Forecast
Issued by NWS

Home | Current Version | Previous Version | Text Only | Print | Product List | Glossary Off
Versions: 1 2 3 4 5 6 7 8 9 10 11 12

000
FTUS43 KIWX 210500
TAFSBN
TAF
KSBN 210522Z 2106/2206 18005KT P6SM SCT250
     FM211200 21008KT P6SM BKN150
     FM211800 23013G19KT P6SM BKN060
     FM220000 24010KT 6SM -SHRA BKN035=

USA.gov is the U.S. government's official web portal to all federal, state and local government web resources and services.